Lichinga Airport

Airport
ICAO code: 
FQLC
IATA Code: 
VXC
Summary
ICAO Region: 
AFI
Territory: 
Location: 
Lichinga,
Serving: 
Lichinga
Elevation: 
4505 ft
Coordinates: 
Aerial View: 
13° 16' 27.934" S, 35° 15' 52.564" E
Metar
Observation
FQLC 061100Z 06013KT 9999 BKN015 28/13 Q1021
Station
Lichinga
Date/Time
2021-12-06 11:00:00
Wind direction
60°
Wind speed
13 kts
Lowest cloud amount
broken clouds
Temperature
28°C
Dew point
13°C
Humidity
39%
QNH
1021 hPa
Weather condition
n/a

Runways

Designator Length Width Surface Rops
8/26 2530 45 ASP No/No
Airport map: 
Aerial View: 

SKYbrary Partners:

Safety knowledge contributed by: